sensor_id;sensor_type;location;lat;lon;timestamp;P1;durP1;ratioP1;P2;durP2;ratioP2
2019;SDS011;1014;51.960;8.542;2023-04-01T00:01:55;26.30;;;25.00;;
2019;SDS011;1014;51.960;8.542;2023-04-01T00:04:22;24.53;;;23.43;;
2019;SDS011;1014;51.960;8.542;2023-04-01T00:06:49;25.47;;;24.17;;
2019;SDS011;1014;51.960;8.542;2023-04-01T00:09:17;22.73;;;21.73;;
2019;SDS011;1014;51.960;8.542;2023-04-01T00:11:44;25.07;;;23.57;;
2019;SDS011;1014;51.960;8.542;2023-04-01T00:14:11;23.87;;;22.80;;
2019;SDS011;1014;51.960;8.542;2023-04-01T00:16:39;24.70;;;23.33;;
2019;SDS011;1014;51.960;8.542;2023-04-01T00:19:06;24.07;;;22.97;;
2019;SDS011;1014;51.960;8.542;2023-04-01T00:21:33;26.30;;;25.20;;
2019;SDS011;1014;51.960;8.542;2023-04-01T00:24:01;25.23;;;24.03;;
2019;SDS011;1014;51.960;8.542;2023-04-01T00:26:29;24.53;;;23.43;;
2019;SDS011;1014;51.960;8.542;2023-04-01T00:28:56;26.20;;;24.90;;
2019;SDS011;1014;51.960;8.542;2023-04-01T00:31:22;24.67;;;23.57;;
2019;SDS011;1014;51.960;8.542;2023-04-01T00:33:51;24.93;;;23.83;;
2019;SDS011;1014;51.960;8.542;2023-04-01T00:36:19;25.17;;;24.03;;
2019;SDS011;1014;51.960;8.542;2023-04-01T00:38:46;24.50;;;23.50;;
2019;SDS011;1014;51.960;8.542;2023-04-01T00:41:14;23.73;;;22.67;;
2019;SDS011;1014;51.960;8.542;2023-04-01T00:43:42;26.13;;;25.03;;
2019;SDS011;1014;51.960;8.542;2023-04-01T00:46:09;24.17;;;23.00;;
2019;SDS011;1014;51.960;8.542;2023-04-01T00:48:38;24.10;;;23.00;;
2019;SDS011;1014;51.960;8.542;2023-04-01T00:51:08;24.17;;;23.17;;
2019;SDS011;1014;51.960;8.542;2023-04-01T00:53:38;24.67;;;23.27;;
2019;SDS011;1014;51.960;8.542;2023-04-01T00:56:07;22.87;;;21.97;;
2019;SDS011;1014;51.960;8.542;2023-04-01T00:58:37;22.80;;;21.70;;
2019;SDS011;1014;51.960;8.542;2023-04-01T01:01:06;22.17;;;21.17;;
2019;SDS011;1014;51.960;8.542;2023-04-01T01:03:33;22.20;;;21.20;;
2019;SDS011;1014;51.960;8.542;2023-04-01T01:06:11;22.93;;;21.90;;
2019;SDS011;1014;51.960;8.542;2023-04-01T01:08:58;20.07;;;19.27;;
2019;SDS011;1014;51.960;8.542;2023-04-01T01:11:34;21.60;;;20.60;;
2019;SDS011;1014;51.960;8.542;2023-04-01T01:14:03;21.27;;;20.37;;
2019;SDS011;1014;51.960;8.542;2023-04-01T01:16:34;21.40;;;20.30;;
2019;SDS011;1014;51.960;8.542;2023-04-01T01:19:04;20.97;;;19.67;;
2019;SDS011;1014;51.960;8.542;2023-04-01T01:21:40;19.60;;;18.80;;
2019;SDS011;1014;51.960;8.542;2023-04-01T01:26:59;20.07;;;18.93;;
2019;SDS011;1014;51.960;8.542;2023-04-01T01:32:24;19.23;;;18.37;;
2019;SDS011;1014;51.960;8.542;2023-04-01T01:37:27;19.33;;;18.53;;
2019;SDS011;1014;51.960;8.542;2023-04-01T01:39:56;19.50;;;18.70;;
2019;SDS011;1014;51.960;8.542;2023-04-01T01:42:25;19.27;;;18.47;;
2019;SDS011;1014;51.960;8.542;2023-04-01T01:44:52;19.10;;;18.30;;
2019;SDS011;1014;51.960;8.542;2023-04-01T01:47:20;19.67;;;18.50;;
2019;SDS011;1014;51.960;8.542;2023-04-01T01:49:48;19.63;;;18.83;;
2019;SDS011;1014;51.960;8.542;2023-04-01T01:52:16;19.00;;;18.10;;
2019;SDS011;1014;51.960;8.542;2023-04-01T01:54:48;18.97;;;18.00;;
2019;SDS011;1014;51.960;8.542;2023-04-01T01:57:15;20.27;;;19.47;;
2019;SDS011;1014;51.960;8.542;2023-04-01T01:59:43;20.63;;;19.83;;
2019;SDS011;1014;51.960;8.542;2023-04-01T02:02:11;20.43;;;19.43;;
2019;SDS011;1014;51.960;8.542;2023-04-01T02:04:40;21.00;;;20.10;;
2019;SDS011;1014;51.960;8.542;2023-04-01T02:07:10;21.90;;;21.00;;
2019;SDS011;1014;51.960;8.542;2023-04-01T02:09:38;22.73;;;21.73;;
2019;SDS011;1014;51.960;8.542;2023-04-01T02:12:08;24.30;;;23.20;;
2019;SDS011;1014;51.960;8.542;2023-04-01T02:14:37;23.40;;;22.40;;
2019;SDS011;1014;51.960;8.542;2023-04-01T02:17:07;24.23;;;23.23;;
2019;SDS011;1014;51.960;8.542;2023-04-01T02:19:36;23.10;;;22.20;;
2019;SDS011;1014;51.960;8.542;2023-04-01T02:22:05;23.13;;;22.13;;
2019;SDS011;1014;51.960;8.542;2023-04-01T02:24:35;22.53;;;21.63;;
2019;SDS011;1014;51.960;8.542;2023-04-01T02:27:02;23.60;;;22.60;;
2019;SDS011;1014;51.960;8.542;2023-04-01T02:29:31;24.03;;;23.00;;
2019;SDS011;1014;51.960;8.542;2023-04-01T02:31:58;23.70;;;22.70;;
2019;SDS011;1014;51.960;8.542;2023-04-01T02:34:25;22.63;;;21.73;;
2019;SDS011;1014;51.960;8.542;2023-04-01T02:36:52;22.20;;;21.30;;
2019;SDS011;1014;51.960;8.542;2023-04-01T02:39:20;22.80;;;21.90;;
2019;SDS011;1014;51.960;8.542;2023-04-01T02:41:47;21.63;;;20.73;;
2019;SDS011;1014;51.960;8.542;2023-04-01T02:44:14;22.13;;;21.23;;
2019;SDS011;1014;51.960;8.542;2023-04-01T02:46:43;22.80;;;21.70;;
2019;SDS011;1014;51.960;8.542;2023-04-01T02:49:10;22.33;;;21.43;;
2019;SDS011;1014;51.960;8.542;2023-04-01T02:51:37;20.80;;;19.90;;
2019;SDS011;1014;51.960;8.542;2023-04-01T02:54:04;20.93;;;20.13;;
2019;SDS011;1014;51.960;8.542;2023-04-01T02:56:31;21.63;;;20.73;;
2019;SDS011;1014;51.960;8.542;2023-04-01T02:58:58;19.90;;;19.10;;
2019;SDS011;1014;51.960;8.542;2023-04-01T03:01:25;20.80;;;19.83;;
2019;SDS011;1014;51.960;8.542;2023-04-01T03:03:53;20.40;;;19.33;;
2019;SDS011;1014;51.960;8.542;2023-04-01T03:06:20;21.50;;;20.60;;
2019;SDS011;1014;51.960;8.542;2023-04-01T03:08:47;21.17;;;20.37;;
2019;SDS011;1014;51.960;8.542;2023-04-01T03:11:15;22.27;;;21.37;;
2019;SDS011;1014;51.960;8.542;2023-04-01T03:13:42;21.27;;;20.47;;
2019;SDS011;1014;51.960;8.542;2023-04-01T03:16:09;21.70;;;20.70;;
2019;SDS011;1014;51.960;8.542;2023-04-01T03:18:36;20.90;;;20.10;;
2019;SDS011;1014;51.960;8.542;2023-04-01T03:21:14;20.70;;;19.90;;
2019;SDS011;1014;51.960;8.542;2023-04-01T03:23:41;22.17;;;21.27;;
2019;SDS011;1014;51.960;8.542;2023-04-01T03:26:08;20.87;;;20.07;;
2019;SDS011;1014;51.960;8.542;2023-04-01T03:28:35;21.57;;;20.67;;
2019;SDS011;1014;51.960;8.542;2023-04-01T03:31:02;21.47;;;20.67;;
2019;SDS011;1014;51.960;8.542;2023-04-01T03:33:30;21.50;;;20.70;;
2019;SDS011;1014;51.960;8.542;2023-04-01T03:35:57;22.23;;;21.33;;
2019;SDS011;1014;51.960;8.542;2023-04-01T03:38:25;21.20;;;20.00;;
2019;SDS011;1014;51.960;8.542;2023-04-01T03:40:53;21.20;;;20.30;;
2019;SDS011;1014;51.960;8.542;2023-04-01T03:43:20;21.40;;;20.50;;
2019;SDS011;1014;51.960;8.542;2023-04-01T03:45:48;21.47;;;20.57;;
2019;SDS011;1014;51.960;8.542;2023-04-01T03:48:15;21.13;;;20.23;;
2019;SDS011;1014;51.960;8.542;2023-04-01T03:50:42;21.27;;;20.47;;
2019;SDS011;1014;51.960;8.542;2023-04-01T03:53:10;21.30;;;20.40;;
2019;SDS011;1014;51.960;8.542;2023-04-01T03:55:38;21.90;;;21.00;;
2019;SDS011;1014;51.960;8.542;2023-04-01T03:58:06;21.33;;;20.43;;
2019;SDS011;1014;51.960;8.542;2023-04-01T04:00:33;22.87;;;21.83;;
2019;SDS011;1014;51.960;8.542;2023-04-01T04:03:00;23.50;;;22.20;;
2019;SDS011;1014;51.960;8.542;2023-04-01T04:05:28;23.60;;;22.70;;
2019;SDS011;1014;51.960;8.542;2023-04-01T04:07:55;23.93;;;22.73;;
2019;SDS011;1014;51.960;8.542;2023-04-01T04:10:22;22.80;;;21.80;;
2019;SDS011;1014;51.960;8.542;2023-04-01T04:12:51;24.40;;;23.40;;
2019;SDS011;1014;51.960;8.542;2023-04-01T04:15:18;24.27;;;23.27;;
2019;SDS011;1014;51.960;8.542;2023-04-01T04:17:45;23.03;;;22.13;;
2019;SDS011;1014;51.960;8.542;2023-04-01T04:20:12;22.73;;;21.83;;
2019;SDS011;1014;51.960;8.542;2023-04-01T04:22:40;23.47;;;22.57;;
2019;SDS011;1014;51.960;8.542;2023-04-01T04:25:07;24.17;;;23.10;;
2019;SDS011;1014;51.960;8.542;2023-04-01T04:27:34;23.27;;;22.30;;
2019;SDS011;1014;51.960;8.542;2023-04-01T04:30:04;24.00;;;22.70;;
2019;SDS011;1014;51.960;8.542;2023-04-01T04:32:32;24.70;;;23.43;;
2019;SDS011;1014;51.960;8.542;2023-04-01T04:34:59;23.47;;;22.47;;
2019;SDS011;1014;51.960;8.542;2023-04-01T04:37:26;23.90;;;22.90;;
2019;SDS011;1014;51.960;8.542;2023-04-01T04:39:53;24.27;;;23.30;;
2019;SDS011;1014;51.960;8.542;2023-04-01T04:42:20;23.30;;;22.40;;
2019;SDS011;1014;51.960;8.542;2023-04-01T04:44:47;24.80;;;23.70;;
2019;SDS011;1014;51.960;8.542;2023-04-01T04:47:15;23.63;;;22.53;;
2019;SDS011;1014;51.960;8.542;2023-04-01T04:49:42;23.20;;;22.30;;
2019;SDS011;1014;51.960;8.542;2023-04-01T04:52:09;24.07;;;23.00;;
2019;SDS011;1014;51.960;8.542;2023-04-01T04:54:36;24.77;;;23.57;;
2019;SDS011;1014;51.960;8.542;2023-04-01T04:57:03;24.83;;;23.83;;
2019;SDS011;1014;51.960;8.542;2023-04-01T04:59:30;26.83;;;25.63;;
2019;SDS011;1014;51.960;8.542;2023-04-01T05:01:57;26.17;;;25.10;;
2019;SDS011;1014;51.960;8.542;2023-04-01T05:04:26;26.77;;;25.73;;
2019;SDS011;1014;51.960;8.542;2023-04-01T05:06:53;24.27;;;23.27;;
2019;SDS011;1014;51.960;8.542;2023-04-01T05:09:20;23.90;;;22.90;;
2019;SDS011;1014;51.960;8.542;2023-04-01T05:11:47;26.33;;;25.03;;
2019;SDS011;1014;51.960;8.542;2023-04-01T05:14:14;24.67;;;23.67;;
2019;SDS011;1014;51.960;8.542;2023-04-01T05:16:41;25.00;;;23.90;;
2019;SDS011;1014;51.960;8.542;2023-04-01T05:19:08;24.47;;;23.37;;
2019;SDS011;1014;51.960;8.542;2023-04-01T05:21:37;24.30;;;23.37;;
2019;SDS011;1014;51.960;8.542;2023-04-01T05:24:07;24.50;;;23.57;;
2019;SDS011;1014;51.960;8.542;2023-04-01T05:26:34;25.80;;;24.10;;
2019;SDS011;1014;51.960;8.542;2023-04-01T05:29:01;26.23;;;25.23;;
2019;SDS011;1014;51.960;8.542;2023-04-01T05:31:28;25.97;;;24.67;;
2019;SDS011;1014;51.960;8.542;2023-04-01T05:33:55;25.87;;;24.87;;
2019;SDS011;1014;51.960;8.542;2023-04-01T05:36:22;24.43;;;23.53;;
2019;SDS011;1014;51.960;8.542;2023-04-01T05:38:51;24.03;;;23.03;;
2019;SDS011;1014;51.960;8.542;2023-04-01T05:41:21;26.60;;;25.50;;
2019;SDS011;1014;51.960;8.542;2023-04-01T05:43:48;24.43;;;23.33;;
2019;SDS011;1014;51.960;8.542;2023-04-01T05:46:15;23.50;;;22.60;;
2019;SDS011;1014;51.960;8.542;2023-04-01T05:48:42;23.37;;;22.17;;
2019;SDS011;1014;51.960;8.542;2023-04-01T05:51:11;24.00;;;22.90;;
2019;SDS011;1014;51.960;8.542;2023-04-01T05:53:38;21.27;;;20.37;;
2019;SDS011;1014;51.960;8.542;2023-04-01T05:56:07;22.40;;;21.53;;
2019;SDS011;1014;51.960;8.542;2023-04-01T05:58:34;23.33;;;22.43;;
2019;SDS011;1014;51.960;8.542;2023-04-01T06:01:02;23.47;;;22.17;;
2019;SDS011;1014;51.960;8.542;2023-04-01T06:03:30;23.07;;;22.07;;
2019;SDS011;1014;51.960;8.542;2023-04-01T06:05:57;21.40;;;20.60;;
2019;SDS011;1014;51.960;8.542;2023-04-01T06:08:26;20.97;;;20.17;;
2019;SDS011;1014;51.960;8.542;2023-04-01T06:10:55;21.83;;;21.03;;
2019;SDS011;1014;51.960;8.542;2023-04-01T06:13:29;21.50;;;20.70;;
2019;SDS011;1014;51.960;8.542;2023-04-01T06:16:04;22.07;;;21.07;;
2019;SDS011;1014;51.960;8.542;2023-04-01T06:24:07;20.20;;;19.43;;
2019;SDS011;1014;51.960;8.542;2023-04-01T06:26:39;21.30;;;20.50;;
2019;SDS011;1014;51.960;8.542;2023-04-01T06:32:03;24.07;;;23.13;;
2019;SDS011;1014;51.960;8.542;2023-04-01T06:34:38;21.90;;;21.10;;
2019;SDS011;1014;51.960;8.542;2023-04-01T06:37:16;22.13;;;21.33;;
2019;SDS011;1014;51.960;8.542;2023-04-01T06:39:50;23.27;;;22.37;;
2019;SDS011;1014;51.960;8.542;2023-04-01T06:42:23;23.30;;;22.40;;
2019;SDS011;1014;51.960;8.542;2023-04-01T06:44:58;23.50;;;22.60;;
2019;SDS011;1014;51.960;8.542;2023-04-01T06:47:36;23.77;;;22.87;;
2019;SDS011;1014;51.960;8.542;2023-04-01T06:50:06;24.33;;;23.43;;
2019;SDS011;1014;51.960;8.542;2023-04-01T06:52:38;25.63;;;24.53;;
2019;SDS011;1014;51.960;8.542;2023-04-01T06:55:13;25.87;;;24.77;;
2019;SDS011;1014;51.960;8.542;2023-04-01T06:57:44;27.13;;;25.93;;
2019;SDS011;1014;51.960;8.542;2023-04-01T07:00:13;27.63;;;26.43;;
2019;SDS011;1014;51.960;8.542;2023-04-01T07:02:43;26.90;;;25.80;;
2019;SDS011;1014;51.960;8.542;2023-04-01T07:05:11;28.47;;;27.17;;
2019;SDS011;1014;51.960;8.542;2023-04-01T07:07:41;28.60;;;27.40;;
2019;SDS011;1014;51.960;8.542;2023-04-01T07:10:11;27.93;;;26.63;;
2019;SDS011;1014;51.960;8.542;2023-04-01T07:12:41;26.10;;;24.97;;
2019;SDS011;1014;51.960;8.542;2023-04-01T07:15:12;31.37;;;29.97;;
2019;SDS011;1014;51.960;8.542;2023-04-01T07:17:43;27.87;;;26.77;;
2019;SDS011;1014;51.960;8.542;2023-04-01T07:20:11;26.20;;;25.20;;
2019;SDS011;1014;51.960;8.542;2023-04-01T07:22:41;27.07;;;25.97;;
2019;SDS011;1014;51.960;8.542;2023-04-01T07:25:11;26.90;;;25.80;;
2019;SDS011;1014;51.960;8.542;2023-04-01T07:27:39;28.13;;;26.93;;
2019;SDS011;1014;51.960;8.542;2023-04-01T07:30:07;31.23;;;29.77;;
2019;SDS011;1014;51.960;8.542;2023-04-01T07:32:39;28.37;;;27.07;;
2019;SDS011;1014;51.960;8.542;2023-04-01T07:35:12;27.50;;;26.40;;
2019;SDS011;1014;51.960;8.542;2023-04-01T07:37:42;27.50;;;26.40;;
2019;SDS011;1014;51.960;8.542;2023-04-01T07:40:15;27.93;;;26.63;;
2019;SDS011;1014;51.960;8.542;2023-04-01T07:42:47;26.90;;;25.67;;
2019;SDS011;1014;51.960;8.542;2023-04-01T07:45:20;27.17;;;25.97;;
2019;SDS011;1014;51.960;8.542;2023-04-01T07:47:53;27.93;;;26.33;;
2019;SDS011;1014;51.960;8.542;2023-04-01T07:50:26;29.40;;;28.10;;
2019;SDS011;1014;51.960;8.542;2023-04-01T07:52:56;27.70;;;26.50;;
2019;SDS011;1014;51.960;8.542;2023-04-01T07:55:26;27.77;;;26.57;;
2019;SDS011;1014;51.960;8.542;2023-04-01T07:57:57;27.37;;;26.27;;
2019;SDS011;1014;51.960;8.542;2023-04-01T08:00:27;25.47;;;24.47;;
2019;SDS011;1014;51.960;8.542;2023-04-01T08:02:59;26.10;;;25.00;;
2019;SDS011;1014;51.960;8.542;2023-04-01T08:05:33;25.87;;;24.80;;
2019;SDS011;1014;51.960;8.542;2023-04-01T08:08:09;25.90;;;24.80;;
2019;SDS011;1014;51.960;8.542;2023-04-01T08:10:39;24.50;;;23.50;;
2019;SDS011;1014;51.960;8.542;2023-04-01T08:13:12;24.83;;;23.70;;
2019;SDS011;1014;51.960;8.542;2023-04-01T08:15:42;25.90;;;24.80;;
2019;SDS011;1014;51.960;8.542;2023-04-01T08:18:15;24.50;;;23.50;;
2019;SDS011;1014;51.960;8.542;2023-04-01T08:20:47;27.53;;;26.23;;
2019;SDS011;1014;51.960;8.542;2023-04-01T08:23:16;27.50;;;26.20;;
2019;SDS011;1014;51.960;8.542;2023-04-01T08:25:44;26.87;;;25.77;;
2019;SDS011;1014;51.960;8.542;2023-04-01T08:28:15;29.30;;;28.00;;
2019;SDS011;1014;51.960;8.542;2023-04-01T08:30:44;26.90;;;25.80;;
2019;SDS011;1014;51.960;8.542;2023-04-01T08:33:15;27.27;;;26.07;;
2019;SDS011;1014;51.960;8.542;2023-04-01T08:35:46;25.33;;;24.33;;
2019;SDS011;1014;51.960;8.542;2023-04-01T08:38:17;25.00;;;24.00;;
2019;SDS011;1014;51.960;8.542;2023-04-01T08:40:56;25.47;;;24.27;;
2019;SDS011;1014;51.960;8.542;2023-04-01T08:46:20;26.67;;;25.40;;
2019;SDS011;1014;51.960;8.542;2023-04-01T08:48:57;26.40;;;25.20;;
2019;SDS011;1014;51.960;8.542;2023-04-01T08:51:36;25.83;;;24.63;;
2019;SDS011;1014;51.960;8.542;2023-04-01T08:54:21;25.67;;;24.57;;
2019;SDS011;1014;51.960;8.542;2023-04-01T08:56:55;26.40;;;25.23;;
2019;SDS011;1014;51.960;8.542;2023-04-01T08:59:38;26.97;;;25.87;;
2019;SDS011;1014;51.960;8.542;2023-04-01T09:05:02;26.60;;;25.40;;
2019;SDS011;1014;51.960;8.542;2023-04-01T09:07:35;25.43;;;24.33;;
2019;SDS011;1014;51.960;8.542;2023-04-01T09:10:22;27.50;;;26.40;;
2019;SDS011;1014;51.960;8.542;2023-04-01T09:12:52;25.03;;;23.83;;
2019;SDS011;1014;51.960;8.542;2023-04-01T09:15:35;25.23;;;24.23;;
2019;SDS011;1014;51.960;8.542;2023-04-01T09:18:09;23.23;;;22.23;;
2019;SDS011;1014;51.960;8.542;2023-04-01T09:20:42;23.13;;;22.13;;
2019;SDS011;1014;51.960;8.542;2023-04-01T09:23:21;23.17;;;22.07;;
2019;SDS011;1014;51.960;8.542;2023-04-01T09:25:57;23.00;;;22.00;;
2019;SDS011;1014;51.960;8.542;2023-04-01T09:28:27;23.30;;;22.27;;
2019;SDS011;1014;51.960;8.542;2023-04-01T09:31:04;23.40;;;22.40;;
2019;SDS011;1014;51.960;8.542;2023-04-01T09:36:24;21.30;;;20.40;;
2019;SDS011;1014;51.960;8.542;2023-04-01T09:38:57;21.60;;;20.70;;
2019;SDS011;1014;51.960;8.542;2023-04-01T09:41:29;22.37;;;21.47;;
2019;SDS011;1014;51.960;8.542;2023-04-01T09:43:58;22.90;;;21.90;;
2019;SDS011;1014;51.960;8.542;2023-04-01T09:46:31;22.50;;;21.60;;
2019;SDS011;1014;51.960;8.542;2023-04-01T09:49:15;23.10;;;22.10;;
2019;SDS011;1014;51.960;8.542;2023-04-01T09:51:49;25.10;;;24.00;;
2019;SDS011;1014;51.960;8.542;2023-04-01T09:54:32;24.00;;;23.00;;
2019;SDS011;1014;51.960;8.542;2023-04-01T09:59:57;25.73;;;24.63;;
2019;SDS011;1014;51.960;8.542;2023-04-01T10:02:43;25.13;;;24.03;;
2019;SDS011;1014;51.960;8.542;2023-04-01T10:05:28;25.10;;;24.00;;
2019;SDS011;1014;51.960;8.542;2023-04-01T10:08:11;24.70;;;23.70;;
2019;SDS011;1014;51.960;8.542;2023-04-01T10:10:53;23.57;;;22.57;;
2019;SDS011;1014;51.960;8.542;2023-04-01T10:16:26;24.63;;;23.53;;
2019;SDS011;1014;51.960;8.542;2023-04-01T10:19:03;25.30;;;24.20;;
2019;SDS011;1014;51.960;8.542;2023-04-01T10:21:56;24.50;;;23.50;;
2019;SDS011;1014;51.960;8.542;2023-04-01T10:24:41;25.23;;;24.00;;
2019;SDS011;1014;51.960;8.542;2023-04-01T10:27:22;24.50;;;23.40;;
2019;SDS011;1014;51.960;8.542;2023-04-01T10:29:59;26.03;;;24.93;;
2019;SDS011;1014;51.960;8.542;2023-04-01T10:32:49;24.70;;;23.60;;
2019;SDS011;1014;51.960;8.542;2023-04-01T10:35:27;26.60;;;25.40;;
2019;SDS011;1014;51.960;8.542;2023-04-01T10:40:53;27.80;;;26.70;;
2019;SDS011;1014;51.960;8.542;2023-04-01T10:46:26;25.63;;;24.53;;
2019;SDS011;1014;51.960;8.542;2023-04-01T10:49:05;27.87;;;26.70;;
2019;SDS011;1014;51.960;8.542;2023-04-01T10:54:30;30.03;;;28.73;;
2019;SDS011;1014;51.960;8.542;2023-04-01T10:57:09;29.93;;;28.63;;
2019;SDS011;1014;51.960;8.542;2023-04-01T11:02:35;27.87;;;26.67;;
2019;SDS011;1014;51.960;8.542;2023-04-01T11:08:05;25.37;;;24.27;;
2019;SDS011;1014;51.960;8.542;2023-04-01T11:10:53;24.63;;;23.53;;
2019;SDS011;1014;51.960;8.542;2023-04-01T11:13:30;26.77;;;25.43;;
2019;SDS011;1014;51.960;8.542;2023-04-01T11:16:14;24.80;;;23.70;;
2019;SDS011;1014;51.960;8.542;2023-04-01T11:19:10;25.57;;;24.57;;
2019;SDS011;1014;51.960;8.542;2023-04-01T11:24:32;24.60;;;23.60;;
2019;SDS011;1014;51.960;8.542;2023-04-01T11:27:05;22.50;;;21.60;;
2019;SDS011;1014;51.960;8.542;2023-04-01T11:29:43;21.50;;;20.60;;
2019;SDS011;1014;51.960;8.542;2023-04-01T11:32:19;22.10;;;21.20;;
2019;SDS011;1014;51.960;8.542;2023-04-01T11:34:55;20.97;;;20.07;;
2019;SDS011;1014;51.960;8.542;2023-04-01T11:37:27;20.30;;;19.50;;
2019;SDS011;1014;51.960;8.542;2023-04-01T11:39:59;21.07;;;20.23;;
2019;SDS011;1014;51.960;8.542;2023-04-01T11:42:30;21.80;;;20.77;;
2019;SDS011;1014;51.960;8.542;2023-04-01T11:45:07;21.87;;;20.97;;
2019;SDS011;1014;51.960;8.542;2023-04-01T11:50:25;21.20;;;20.30;;
2019;SDS011;1014;51.960;8.542;2023-04-01T11:53:01;20.40;;;19.57;;
2019;SDS011;1014;51.960;8.542;2023-04-01T11:55:35;22.37;;;21.47;;
2019;SDS011;1014;51.960;8.542;2023-04-01T12:00:51;21.70;;;20.80;;
2019;SDS011;1014;51.960;8.542;2023-04-01T12:03:25;21.60;;;20.70;;
2019;SDS011;1014;51.960;8.542;2023-04-01T12:06:00;20.37;;;19.47;;
2019;SDS011;1014;51.960;8.542;2023-04-01T12:08:31;20.47;;;19.57;;
2019;SDS011;1014;51.960;8.542;2023-04-01T12:11:05;21.30;;;20.40;;
2019;SDS011;1014;51.960;8.542;2023-04-01T12:13:37;22.10;;;21.10;;
2019;SDS011;1014;51.960;8.542;2023-04-01T12:16:12;22.00;;;21.10;;
2019;SDS011;1014;51.960;8.542;2023-04-01T12:18:41;22.10;;;21.00;;
2019;SDS011;1014;51.960;8.542;2023-04-01T12:21:14;21.63;;;20.73;;
2019;SDS011;1014;51.960;8.542;2023-04-01T12:23:49;23.07;;;21.97;;
2019;SDS011;1014;51.960;8.542;2023-04-01T12:26:23;21.00;;;20.10;;
2019;SDS011;1014;51.960;8.542;2023-04-01T12:28:59;21.47;;;20.47;;
2019;SDS011;1014;51.960;8.542;2023-04-01T12:31:32;20.03;;;18.93;;
2019;SDS011;1014;51.960;8.542;2023-04-01T12:36:54;21.13;;;20.13;;
2019;SDS011;1014;51.960;8.542;2023-04-01T12:39:29;21.13;;;20.13;;
2019;SDS011;1014;51.960;8.542;2023-04-01T12:42:01;20.27;;;19.47;;
2019;SDS011;1014;51.960;8.542;2023-04-01T12:44:41;21.30;;;20.30;;
2019;SDS011;1014;51.960;8.542;2023-04-01T12:47:13;19.33;;;18.53;;
2019;SDS011;1014;51.960;8.542;2023-04-01T12:49:51;21.37;;;20.47;;
2019;SDS011;1014;51.960;8.542;2023-04-01T12:52:25;20.23;;;19.43;;
2019;SDS011;1014;51.960;8.542;2023-04-01T12:54:58;20.70;;;19.90;;
2019;SDS011;1014;51.960;8.542;2023-04-01T12:57:33;21.23;;;20.33;;
2019;SDS011;1014;51.960;8.542;2023-04-01T13:02:51;23.87;;;22.87;;
2019;SDS011;1014;51.960;8.542;2023-04-01T13:05:30;23.37;;;22.47;;
2019;SDS011;1014;51.960;8.542;2023-04-01T13:08:03;21.37;;;20.57;;
2019;SDS011;1014;51.960;8.542;2023-04-01T13:10:38;22.10;;;21.20;;
2019;SDS011;1014;51.960;8.542;2023-04-01T13:15:51;21.73;;;20.83;;
2019;SDS011;1014;51.960;8.542;2023-04-01T13:18:21;20.47;;;19.67;;
2019;SDS011;1014;51.960;8.542;2023-04-01T13:20:54;22.90;;;21.90;;
2019;SDS011;1014;51.960;8.542;2023-04-01T13:23:32;23.33;;;22.43;;
2019;SDS011;1014;51.960;8.542;2023-04-01T13:26:04;25.53;;;24.33;;
2019;SDS011;1014;51.960;8.542;2023-04-01T13:28:34;25.80;;;24.70;;
2019;SDS011;1014;51.960;8.542;2023-04-01T13:31:05;23.37;;;22.47;;
2019;SDS011;1014;51.960;8.542;2023-04-01T13:33:37;23.80;;;22.80;;
2019;SDS011;1014;51.960;8.542;2023-04-01T13:36:11;24.60;;;23.60;;
2019;SDS011;1014;51.960;8.542;2023-04-01T13:41:33;24.60;;;23.60;;
2019;SDS011;1014;51.960;8.542;2023-04-01T13:44:06;26.70;;;25.60;;
2019;SDS011;1014;51.960;8.542;2023-04-01T13:46:54;27.13;;;25.87;;
2019;SDS011;1014;51.960;8.542;2023-04-01T13:52:20;25.40;;;24.40;;
2019;SDS011;1014;51.960;8.542;2023-04-01T13:54:56;23.17;;;21.97;;
2019;SDS011;1014;51.960;8.542;2023-04-01T13:57:35;23.63;;;22.63;;
2019;SDS011;1014;51.960;8.542;2023-04-01T14:00:10;32.77;;;30.73;;
2019;SDS011;1014;51.960;8.542;2023-04-01T14:02:46;25.27;;;24.07;;
2019;SDS011;1014;51.960;8.542;2023-04-01T14:05:25;30.27;;;28.57;;
2019;SDS011;1014;51.960;8.542;2023-04-01T14:07:58;28.17;;;26.67;;
2019;SDS011;1014;51.960;8.542;2023-04-01T14:10:28;26.37;;;24.87;;
2019;SDS011;1014;51.960;8.542;2023-04-01T14:13:00;27.53;;;26.20;;
2019;SDS011;1014;51.960;8.542;2023-04-01T14:15:37;28.00;;;26.70;;
2019;SDS011;1014;51.960;8.542;2023-04-01T14:18:24;30.20;;;28.20;;
2019;SDS011;1014;51.960;8.542;2023-04-01T14:21:00;28.13;;;26.80;;
2019;SDS011;1014;51.960;8.542;2023-04-01T14:23:35;26.90;;;25.33;;
2019;SDS011;1014;51.960;8.542;2023-04-01T14:28:54;25.73;;;24.60;;
2019;SDS011;1014;51.960;8.542;2023-04-01T14:31:31;26.33;;;24.83;;
2019;SDS011;1014;51.960;8.542;2023-04-01T14:34:05;25.73;;;24.63;;
2019;SDS011;1014;51.960;8.542;2023-04-01T14:36:50;27.10;;;25.67;;
2019;SDS011;1014;51.960;8.542;2023-04-01T14:39:26;26.87;;;25.60;;
2019;SDS011;1014;51.960;8.542;2023-04-01T14:41:59;25.60;;;24.40;;
2019;SDS011;1014;51.960;8.542;2023-04-01T14:44:36;26.30;;;25.00;;
2019;SDS011;1014;51.960;8.542;2023-04-01T14:49:52;28.13;;;26.83;;
2019;SDS011;1014;51.960;8.542;2023-04-01T14:52:23;25.40;;;24.20;;
2019;SDS011;1014;51.960;8.542;2023-04-01T14:54:51;26.07;;;24.57;;
2019;SDS011;1014;51.960;8.542;2023-04-01T14:57:22;27.63;;;26.13;;
2019;SDS011;1014;51.960;8.542;2023-04-01T14:59:53;32.47;;;30.60;;
2019;SDS011;1014;51.960;8.542;2023-04-01T15:02:32;36.07;;;33.87;;
2019;SDS011;1014;51.960;8.542;2023-04-01T15:05:02;33.27;;;31.33;;
2019;SDS011;1014;51.960;8.542;2023-04-01T15:07:41;39.57;;;36.67;;
2019;SDS011;1014;51.960;8.542;2023-04-01T15:10:12;31.67;;;29.80;;
2019;SDS011;1014;51.960;8.542;2023-04-01T15:12:48;44.00;;;40.40;;
2019;SDS011;1014;51.960;8.542;2023-04-01T15:15:27;35.63;;;33.17;;
2019;SDS011;1014;51.960;8.542;2023-04-01T15:18:03;33.67;;;31.57;;
2019;SDS011;1014;51.960;8.542;2023-04-01T15:20:37;31.67;;;29.67;;
2019;SDS011;1014;51.960;8.542;2023-04-01T15:23:11;49.10;;;44.90;;
2019;SDS011;1014;51.960;8.542;2023-04-01T15:25:45;36.07;;;33.87;;
2019;SDS011;1014;51.960;8.542;2023-04-01T15:28:17;34.13;;;32.13;;
2019;SDS011;1014;51.960;8.542;2023-04-01T15:30:50;33.70;;;31.70;;
2019;SDS011;1014;51.960;8.542;2023-04-01T15:33:23;26.70;;;25.40;;
2019;SDS011;1014;51.960;8.542;2023-04-01T15:35:52;26.83;;;25.43;;
2019;SDS011;1014;51.960;8.542;2023-04-01T15:38:23;24.03;;;22.90;;
2019;SDS011;1014;51.960;8.542;2023-04-01T15:40:53;27.00;;;25.60;;
2019;SDS011;1014;51.960;8.542;2023-04-01T15:43:26;33.60;;;31.43;;
2019;SDS011;1014;51.960;8.542;2023-04-01T15:45:58;33.20;;;31.30;;
2019;SDS011;1014;51.960;8.542;2023-04-01T15:48:31;28.97;;;27.27;;
2019;SDS011;1014;51.960;8.542;2023-04-01T15:51:07;28.63;;;27.23;;
2019;SDS011;1014;51.960;8.542;2023-04-01T15:56:24;27.70;;;26.30;;
2019;SDS011;1014;51.960;8.542;2023-04-01T15:58:55;28.03;;;26.73;;
2019;SDS011;1014;51.960;8.542;2023-04-01T16:01:29;28.33;;;26.93;;
2019;SDS011;1014;51.960;8.542;2023-04-01T16:04:01;28.87;;;27.50;;
2019;SDS011;1014;51.960;8.542;2023-04-01T16:06:38;29.57;;;27.77;;
2019;SDS011;1014;51.960;8.542;2023-04-01T16:09:14;29.63;;;28.00;;
2019;SDS011;1014;51.960;8.542;2023-04-01T16:11:47;33.70;;;31.93;;
2019;SDS011;1014;51.960;8.542;2023-04-01T16:14:18;31.40;;;29.90;;
2019;SDS011;1014;51.960;8.542;2023-04-01T16:16:56;32.13;;;30.43;;
2019;SDS011;1014;51.960;8.542;2023-04-01T16:19:39;29.13;;;27.80;;
2019;SDS011;1014;51.960;8.542;2023-04-01T16:22:11;30.40;;;29.00;;
2019;SDS011;1014;51.960;8.542;2023-04-01T16:24:41;29.20;;;27.67;;
2019;SDS011;1014;51.960;8.542;2023-04-01T16:27:12;28.50;;;27.20;;
2019;SDS011;1014;51.960;8.542;2023-04-01T16:29:42;29.07;;;27.67;;
2019;SDS011;1014;51.960;8.542;2023-04-01T16:32:21;30.13;;;28.77;;